createdAt,value
2019-02-04T00:00:14.892Z,20.80
2019-02-04T00:03:22.706Z,20.80
2019-02-04T00:06:28.330Z,20.80
2019-02-04T00:09:33.974Z,20.80
2019-02-04T00:12:39.662Z,20.80
2019-02-04T00:15:45.315Z,20.80
2019-02-04T00:18:50.965Z,20.80
2019-02-04T00:21:56.593Z,20.80
2019-02-04T00:25:02.249Z,20.70
2019-02-04T00:28:07.893Z,20.70
2019-02-04T00:31:13.577Z,20.70
2019-02-04T00:34:19.230Z,20.70
2019-02-04T00:37:25.812Z,20.70
2019-02-04T00:40:31.634Z,20.70
2019-02-04T00:43:37.310Z,20.70
2019-02-04T00:46:51.935Z,20.70
2019-02-04T00:49:50.229Z,20.60
2019-02-04T00:52:57.655Z,20.60
2019-02-04T00:56:03.714Z,20.60
2019-02-04T00:59:09.365Z,20.50
2019-02-04T01:02:14.985Z,20.50
2019-02-04T01:05:21.181Z,20.40
2019-02-04T01:08:26.707Z,20.40
2019-02-04T01:11:32.359Z,20.30
2019-02-04T01:14:38.038Z,20.30
2019-02-04T01:17:43.694Z,20.30
2019-02-04T01:20:49.431Z,20.20
2019-02-04T01:23:55.069Z,20.20
2019-02-04T01:27:00.754Z,20.20
2019-02-04T01:30:06.913Z,20.10
2019-02-04T01:33:12.566Z,20.10
2019-02-04T01:36:18.192Z,20.10
2019-02-04T01:39:23.882Z,20.10
2019-02-04T01:42:29.631Z,20.00
2019-02-04T01:45:35.181Z,20.00
2019-02-04T01:48:42.108Z,20.00
2019-02-04T01:51:47.709Z,20.00
2019-02-04T01:54:53.367Z,19.90
2019-02-04T01:57:59.018Z,19.90
2019-02-04T02:01:04.746Z,19.90
2019-02-04T02:04:10.406Z,19.90
2019-02-04T02:07:16.081Z,19.80
2019-02-04T02:10:23.134Z,19.80
2019-02-04T02:13:28.822Z,19.80
2019-02-04T02:16:36.146Z,19.80
2019-02-04T02:19:41.737Z,19.80
2019-02-04T02:22:47.521Z,19.70
2019-02-04T02:25:53.178Z,19.70
2019-02-04T02:28:58.962Z,19.70
2019-02-04T02:32:05.910Z,19.70
2019-02-04T02:35:11.582Z,19.70
2019-02-04T02:38:17.214Z,19.70
2019-02-04T02:41:22.938Z,19.60
2019-02-04T02:44:28.626Z,19.60
2019-02-04T02:47:38.395Z,19.60
2019-02-04T02:50:41.543Z,19.50
2019-02-04T02:53:47.485Z,19.50
2019-02-04T02:56:54.750Z,19.50
2019-02-04T03:00:00.401Z,19.50
2019-02-04T03:03:06.749Z,19.50
2019-02-04T03:06:12.429Z,19.40
2019-02-04T03:09:18.042Z,19.40
2019-02-04T03:12:23.837Z,19.40
2019-02-04T03:15:29.525Z,19.40
2019-02-04T03:18:35.250Z,19.40
2019-02-04T03:21:40.694Z,19.40
2019-02-04T03:24:46.409Z,19.30
2019-02-04T03:27:51.931Z,19.30
2019-02-04T03:30:59.363Z,19.30
2019-02-04T03:34:05.178Z,19.30
2019-02-04T03:37:14.397Z,19.30
2019-02-04T03:40:21.817Z,19.20
2019-02-04T03:43:27.579Z,19.20
2019-02-04T03:46:33.284Z,19.20
2019-02-04T03:49:38.911Z,19.20
2019-02-04T03:52:44.552Z,19.20
2019-02-04T03:55:50.222Z,19.20
2019-02-04T03:58:55.966Z,19.10
2019-02-04T04:02:01.858Z,19.10
2019-02-04T04:05:07.854Z,19.10
2019-02-04T04:08:13.546Z,19.00
2019-02-04T04:11:19.158Z,19.10
2019-02-04T04:14:24.733Z,19.10
2019-02-04T04:17:30.701Z,19.10
2019-02-04T04:20:36.350Z,19.10
2019-02-04T04:23:41.966Z,19.10
2019-02-04T04:26:47.618Z,19.10
2019-02-04T04:29:53.294Z,19.10
2019-02-04T04:32:58.950Z,19.10
2019-02-04T04:36:06.446Z,19.10
2019-02-04T04:39:12.070Z,19.00
2019-02-04T04:42:17.722Z,19.00
2019-02-04T04:45:24.300Z,19.00
2019-02-04T04:48:31.281Z,19.00
2019-02-04T04:51:36.962Z,19.00
2019-02-04T04:54:42.716Z,19.00
2019-02-04T04:57:48.474Z,19.00
2019-02-04T05:00:54.125Z,19.00
2019-02-04T05:03:59.750Z,19.00
2019-02-04T05:07:05.429Z,18.90
2019-02-04T05:10:13.408Z,18.90
2019-02-04T05:13:19.094Z,18.90
2019-02-04T05:16:24.846Z,18.90
2019-02-04T05:19:32.178Z,19.00
2019-02-04T05:22:39.530Z,19.00
2019-02-04T05:25:45.182Z,19.10
2019-02-04T05:28:52.175Z,19.10
2019-02-04T05:31:57.923Z,19.20
2019-02-04T05:35:03.691Z,19.20
2019-02-04T05:38:09.331Z,19.30
2019-02-04T05:41:14.978Z,19.30
2019-02-04T05:44:20.705Z,19.30
2019-02-04T05:47:26.389Z,19.40
2019-02-04T05:50:32.069Z,19.40
2019-02-04T05:53:37.770Z,19.50
2019-02-04T05:56:43.527Z,19.50
2019-02-04T05:59:49.521Z,19.60
2019-02-04T06:02:55.294Z,19.60
2019-02-04T06:06:03.858Z,19.70
2019-02-04T06:09:09.628Z,19.70
2019-02-04T06:12:15.406Z,19.70
2019-02-04T06:15:21.072Z,19.80
2019-02-04T06:18:26.709Z,19.80
2019-02-04T06:21:32.523Z,19.90
2019-02-04T06:24:38.522Z,19.90
2019-02-04T06:27:44.235Z,19.90
2019-02-04T06:30:49.898Z,19.90
2019-02-04T06:33:55.597Z,20.00
2019-02-04T06:37:01.235Z,20.00
2019-02-04T06:40:07.690Z,20.00
2019-02-04T06:43:13.457Z,20.00
2019-02-04T06:46:19.151Z,20.00
2019-02-04T06:49:24.766Z,20.00
2019-02-04T06:52:30.662Z,20.10
2019-02-04T06:55:37.536Z,20.00
2019-02-04T06:58:43.338Z,20.10
2019-02-04T07:01:49.017Z,20.10
2019-02-04T07:04:54.976Z,20.10
2019-02-04T07:08:02.301Z,20.10
2019-02-04T07:11:08.162Z,20.20
2019-02-04T07:14:13.882Z,20.20
2019-02-04T07:17:19.678Z,20.20
2019-02-04T07:20:26.210Z,20.20
2019-02-04T07:23:32.074Z,20.30
2019-02-04T07:26:38.014Z,20.30
2019-02-04T07:29:43.690Z,20.30
2019-02-04T07:32:49.539Z,20.30
2019-02-04T07:35:55.181Z,20.30
2019-02-04T07:39:00.973Z,20.30
2019-02-04T07:42:06.704Z,20.30
2019-02-04T07:45:12.559Z,20.30
2019-02-04T07:48:18.190Z,20.30
2019-02-04T07:51:23.861Z,20.30
2019-02-04T07:54:29.531Z,20.30
2019-02-04T07:57:35.579Z,20.40
2019-02-04T08:00:41.340Z,20.30
2019-02-04T08:03:46.986Z,20.30
2019-02-04T08:06:52.710Z,20.30
2019-02-04T08:09:58.393Z,20.40
2019-02-04T08:13:09.094Z,20.40
2019-02-04T08:16:14.898Z,20.40
2019-02-04T08:19:20.994Z,20.40
2019-02-04T08:22:26.617Z,20.40
2019-02-04T08:25:32.397Z,20.50
2019-02-04T08:28:38.046Z,20.50
2019-02-04T08:31:43.705Z,20.70
2019-02-04T08:34:51.506Z,20.70
2019-02-04T08:37:57.162Z,20.70
2019-02-04T08:41:02.711Z,20.60
2019-02-04T08:44:08.467Z,20.60
2019-02-04T08:47:22.667Z,20.60
2019-02-04T08:50:21.581Z,20.60
2019-02-04T08:53:27.364Z,20.60
2019-02-04T08:56:33.028Z,20.60
2019-02-04T08:59:40.110Z,20.60
2019-02-04T09:02:45.948Z,20.60
2019-02-04T09:05:51.736Z,20.60
2019-02-04T09:08:57.346Z,20.60
2019-02-04T09:12:04.702Z,20.60
2019-02-04T09:15:12.738Z,20.70
2019-02-04T09:18:18.395Z,20.70
2019-02-04T09:21:24.181Z,20.70
2019-02-04T09:24:29.906Z,20.70
2019-02-04T09:27:35.589Z,20.70
2019-02-04T09:30:42.528Z,20.80
2019-02-04T09:33:49.864Z,20.80
2019-02-04T09:36:55.626Z,20.80
2019-02-04T09:40:01.454Z,20.80
2019-02-04T09:43:07.606Z,20.80
2019-02-04T09:46:13.295Z,20.90
2019-02-04T09:49:19.353Z,20.90
2019-02-04T09:52:25.010Z,20.90
2019-02-04T09:55:33.221Z,20.90
2019-02-04T09:58:38.870Z,20.90
2019-02-04T10:01:45.160Z,20.90
2019-02-04T10:04:50.894Z,20.90
2019-02-04T10:07:56.681Z,21.00
2019-02-04T10:11:02.298Z,21.00
2019-02-04T10:14:08.206Z,21.00
2019-02-04T10:17:13.889Z,21.10
2019-02-04T10:20:20.586Z,21.10
2019-02-04T10:23:26.338Z,21.10
2019-02-04T10:26:32.236Z,21.10
2019-02-04T10:29:42.435Z,21.20
2019-02-04T10:32:48.171Z,21.20
2019-02-04T10:35:53.779Z,21.20
2019-02-04T10:38:59.531Z,21.20
2019-02-04T10:42:06.673Z,21.30
2019-02-04T10:45:13.446Z,21.40
2019-02-04T10:48:19.596Z,21.50
2019-02-04T10:51:25.461Z,21.60
2019-02-04T10:54:31.373Z,21.80
2019-02-04T10:57:40.553Z,21.90
2019-02-04T11:00:44.952Z,22.10
2019-02-04T11:03:50.638Z,22.30
2019-02-04T11:07:15.503Z,22.50
2019-02-04T11:10:24.918Z,22.80
2019-02-04T11:13:51.097Z,23.20
2019-02-04T11:16:56.898Z,23.50
2019-02-04T11:20:02.579Z,23.80
2019-02-04T11:23:09.257Z,23.90
2019-02-04T11:26:15.149Z,24.10
2019-02-04T11:29:20.734Z,24.10
2019-02-04T11:32:26.381Z,24.30
2019-02-04T11:35:32.261Z,24.70
2019-02-04T11:38:38.146Z,25.30
2019-02-04T11:41:43.788Z,25.30
2019-02-04T11:44:49.464Z,25.10
2019-02-04T11:47:55.375Z,24.90
2019-02-04T11:51:09.306Z,24.50
2019-02-04T11:54:08.306Z,24.20
2019-02-04T11:57:13.994Z,24.00
2019-02-04T12:00:22.062Z,23.60
2019-02-04T12:03:27.789Z,23.30
2019-02-04T12:06:34.593Z,23.00
2019-02-04T12:09:40.203Z,22.90
2019-02-04T12:12:45.851Z,22.80
2019-02-04T12:15:51.621Z,22.70
2019-02-04T12:18:57.369Z,22.50
2019-02-04T12:22:03.012Z,22.60
2019-02-04T12:25:10.741Z,22.70
2019-02-04T12:28:16.779Z,22.70
2019-02-04T12:31:22.592Z,22.60
2019-02-04T12:34:28.222Z,22.70
2019-02-04T12:37:34.606Z,22.70
2019-02-04T12:40:40.185Z,22.70
2019-02-04T12:43:45.978Z,22.70
2019-02-04T12:46:51.723Z,22.70
2019-02-04T12:49:58.090Z,22.80
2019-02-04T12:53:03.741Z,22.80
2019-02-04T12:56:09.603Z,22.80
2019-02-04T12:59:15.217Z,22.80
2019-02-04T13:02:20.974Z,22.80
2019-02-04T13:05:33.581Z,22.80
2019-02-04T13:08:39.245Z,22.80
2019-02-04T13:11:44.897Z,22.90
2019-02-04T13:14:50.813Z,22.90
2019-02-04T13:17:58.113Z,23.00
2019-02-04T13:21:03.834Z,23.00
2019-02-04T13:24:09.454Z,23.00
2019-02-04T13:27:15.205Z,23.00
2019-02-04T13:30:22.389Z,23.00
2019-02-04T13:33:28.078Z,22.60
2019-02-04T13:36:33.730Z,22.40
2019-02-04T13:39:39.802Z,22.40
2019-02-04T13:42:45.524Z,22.70
2019-02-04T13:45:51.188Z,23.00
2019-02-04T13:48:56.855Z,23.30
2019-02-04T13:52:03.547Z,23.70
2019-02-04T13:55:11.375Z,24.00
2019-02-04T13:58:16.848Z,24.30
2019-02-04T14:01:23.431Z,24.60
2019-02-04T14:04:29.198Z,24.80
2019-02-04T14:07:35.037Z,25.00
2019-02-04T14:10:45.988Z,25.20
2019-02-04T14:13:50.299Z,25.30
2019-02-04T14:16:55.908Z,25.40
2019-02-04T14:20:03.415Z,25.30
2019-02-04T14:23:09.575Z,25.20
2019-02-04T14:26:15.251Z,25.20
2019-02-04T14:29:20.892Z,25.20
2019-02-04T14:32:26.764Z,25.30
2019-02-04T14:35:32.307Z,25.40
2019-02-04T14:38:38.013Z,25.40
2019-02-04T14:41:43.712Z,25.30
2019-02-04T14:45:16.715Z,25.10
2019-02-04T14:48:42.229Z,25.00
2019-02-04T14:52:07.232Z,25.00
2019-02-04T14:56:03.095Z,25.00
2019-02-04T14:59:14.551Z,25.00
2019-02-04T15:02:54.959Z,24.90
2019-02-04T15:06:21.371Z,24.70
2019-02-04T15:10:17.647Z,24.70
2019-02-04T15:14:23.785Z,24.80
2019-02-04T15:18:01.180Z,24.80
2019-02-04T15:22:05.840Z,24.70
2019-02-04T15:26:11.340Z,24.60
2019-02-04T15:29:48.932Z,24.50
2019-02-04T15:33:38.492Z,24.50
2019-02-04T15:37:15.610Z,24.50
2019-02-04T15:40:26.784Z,24.50
2019-02-04T15:43:50.235Z,24.50
2019-02-04T15:47:15.016Z,24.40
2019-02-04T15:51:21.875Z,24.30
2019-02-04T15:54:28.750Z,24.20
2019-02-04T15:57:34.775Z,24.10
2019-02-04T16:00:42.137Z,24.00
2019-02-04T16:03:47.944Z,23.90
2019-02-04T16:06:53.616Z,23.90
2019-02-04T16:09:59.275Z,23.80
2019-02-04T16:13:04.985Z,23.60
2019-02-04T16:16:10.774Z,23.50
2019-02-04T16:19:16.412Z,23.40
2019-02-04T16:22:22.127Z,23.30
2019-02-04T16:25:29.163Z,23.20
2019-02-04T16:28:35.848Z,23.10
2019-02-04T16:31:41.464Z,23.10
2019-02-04T16:34:47.124Z,23.00
2019-02-04T16:37:52.906Z,23.00
2019-02-04T16:40:59.151Z,23.00
2019-02-04T16:44:06.552Z,22.90
2019-02-04T16:47:12.322Z,22.90
2019-02-04T16:50:25.961Z,22.90
2019-02-04T16:53:31.614Z,22.90
2019-02-04T16:56:37.245Z,22.90
2019-02-04T16:59:42.917Z,22.90
2019-02-04T17:02:48.865Z,22.90
2019-02-04T17:05:56.341Z,22.80
2019-02-04T17:09:02.384Z,22.80
2019-02-04T17:12:09.830Z,22.80
2019-02-04T17:15:15.863Z,22.70
2019-02-04T17:18:21.866Z,22.70
2019-02-04T17:21:27.497Z,22.80
2019-02-04T17:24:33.262Z,22.80
2019-02-04T17:27:38.778Z,22.80
2019-02-04T17:30:44.434Z,22.80
2019-02-04T17:33:50.110Z,22.80
2019-02-04T17:36:55.872Z,22.80
2019-02-04T17:40:01.519Z,22.80
2019-02-04T17:43:07.345Z,22.90
2019-02-04T17:46:13.970Z,22.80
2019-02-04T17:49:19.814Z,22.90
2019-02-04T17:52:25.505Z,22.80
2019-02-04T17:55:31.426Z,22.80
2019-02-04T17:58:37.087Z,22.80
2019-02-04T18:01:43.211Z,22.70
2019-02-04T18:04:49.008Z,22.70
2019-02-04T18:07:55.670Z,22.70
2019-02-04T18:11:01.477Z,22.70
2019-02-04T18:14:07.494Z,22.70
2019-02-04T18:17:13.358Z,22.70
2019-02-04T18:20:19.614Z,22.70
2019-02-04T18:23:25.391Z,22.70
2019-02-04T18:26:31.126Z,22.70
2019-02-04T18:29:36.990Z,22.70
2019-02-04T18:32:42.924Z,22.70
2019-02-04T18:35:48.589Z,22.70
2019-02-04T18:38:54.212Z,22.70
2019-02-04T18:42:00.339Z,22.70
2019-02-04T18:45:09.742Z,22.70
2019-02-04T18:48:17.894Z,22.70
2019-02-04T18:51:25.821Z,22.70
2019-02-04T18:54:31.619Z,22.70
2019-02-04T18:57:37.234Z,22.70
2019-02-04T19:00:43.028Z,22.70
2019-02-04T19:03:48.770Z,22.70
2019-02-04T19:06:54.530Z,22.70
2019-02-04T19:10:00.203Z,22.70
2019-02-04T19:13:06.012Z,22.50
2019-02-04T19:16:11.809Z,22.50
2019-02-04T19:19:17.450Z,22.50
2019-02-04T19:22:23.201Z,22.60
2019-02-04T19:25:31.901Z,22.60
2019-02-04T19:28:37.557Z,22.70
2019-02-04T19:31:43.237Z,22.70
2019-02-04T19:34:48.855Z,22.80
2019-02-04T19:37:54.509Z,22.70
2019-02-04T19:41:00.194Z,22.70
2019-02-04T19:53:26.900Z,22.80
2019-02-04T20:33:44.690Z,22.60
2019-02-04T20:41:48.075Z,22.60
2019-02-04T20:53:56.149Z,22.60
2019-02-04T21:24:08.891Z,22.40
2019-02-04T21:33:05.814Z,22.30
2019-02-04T21:41:18.941Z,22.10
2019-02-04T21:44:23.310Z,22.00
2019-02-04T21:47:44.061Z,21.90
2019-02-04T21:51:12.106Z,21.90
2019-02-04T21:54:18.829Z,21.80
2019-02-04T22:02:57.070Z,21.70
2019-02-04T22:06:22.804Z,21.70
2019-02-04T22:09:48.244Z,21.60
2019-02-04T22:13:16.406Z,21.60
2019-02-04T22:16:43.429Z,21.50
2019-02-04T22:20:18.810Z,21.50
2019-02-04T22:23:44.863Z,21.50
2019-02-04T22:26:50.486Z,21.40
2019-02-04T22:29:56.445Z,21.40
2019-02-04T22:33:02.414Z,21.30
2019-02-04T22:36:09.034Z,21.30
2019-02-04T22:39:15.761Z,21.30
2019-02-04T22:42:21.422Z,21.30
2019-02-04T22:45:27.391Z,21.20
2019-02-04T22:48:33.002Z,21.20
2019-02-04T22:51:39.429Z,21.20
2019-02-04T22:54:48.717Z,21.20
2019-02-04T22:57:54.394Z,21.10
2019-02-04T23:01:24.205Z,21.00
2019-02-04T23:04:29.962Z,20.80
2019-02-04T23:07:40.042Z,20.80
2019-02-04T23:10:46.186Z,20.70
2019-02-04T23:14:37.782Z,20.70
2019-02-04T23:21:18.257Z,20.70
2019-02-04T23:26:01.968Z,20.70
2019-02-04T23:29:27.782Z,20.70
2019-02-04T23:32:35.063Z,20.70
2019-02-04T23:35:41.133Z,20.70
2019-02-04T23:39:50.440Z,20.70
2019-02-04T23:43:15.798Z,20.60
2019-02-04T23:50:23.422Z,20.60
